Historyczne dane pomiarowe

Dodano dane terminowe – wersja testowa.

Dane z okresu 1951-2019

Wersja bazy: 1.34 [2019-03-16, lista zmian], aktualizacja planowana na 2019-04-15

Dane meteo z obszaru Polski uzyskane na podstawie danych udostępnionych przez Instytut Meteorologii i Gospodarki Wodnej – Państwowy Instytut Badawczy.

 

Wybierz Datę:    

       

TemperaturaWilgotnośćWiatrCiśnienieOpadyŚniegCzas trwania zjawisk
 Stacja t tx tn tng RH VA  wxwx mslp ppp RRR   cm mm wxwxwxwxwxwxwx
2019-06-13 20.7 26.0 17.6 17.8-- 8.0----- 11.5------------
2019-06-12 24.3 29.5 17.5 14.8-- 1.0----- 0.0------------
2019-06-11 23.8 30.5 12.9 12.9-- 1.0----- 0.0------------
2019-06-10 22.4 29.4 12.6 10.8-- 5.7----- 0.0------------
2019-06-09 17.6 24.0 8.3 6.3-- 3.3----- 0.0------------
2019-06-08 17.8 21.2 12.8 11.2-- 6.0----- 1.7------------
2019-06-07 18.8 22.7 15.4 15.3-- 6.3----- 0.0------------
2019-06-06 20.8 25.0 15.4 13.3-- 3.0----- 4.6------------
2019-06-05 20.8 27.4 12.8 10.7-- 2.7----- 0.0------------
2019-06-04 21.7 28.0 12.3 10.2-- 1.0----- 0.0------------
2019-06-03 20.3 26.7 11.9 9.4-- 1.0----- 0.0------------
2019-06-02 20.5 26.2 12.0 10.3-- 2.3----- 0.0------------
2019-06-01 18.6 24.5 11.8 9.3-- 3.0----- 0.0------------
2019-05-31 15.5 22.3 5.3 3.5-- 3.7----- 0.0------------
2019-05-30 11.8 16.6 6.0 4.8-- 3.0----- 0.0------------
2019-05-29 11.5 15.0 8.8 8.7-- 8.0----- 0.0------------
2019-05-28 14.0 18.0 11.3 10.5-- 8.0----- 7.0------------
2019-05-27 17.7 23.7 11.3 8.0-- 5.3----- 5.9------------
2019-05-26 15.2 21.6 7.6 5.3-- 2.7----- 0.0------------
2019-05-25 15.0 20.6 8.0 5.8-- 7.3----- 1.8------------
2019-05-24 14.2 19.4 7.3 5.0-- 2.0----- 0.0------------
2019-05-23 11.6 13.3 9.8 9.2-- 8.0----- 0.3------------
2019-05-22 14.4 18.2 12.5 12.2-- 8.0----- 4.0------------
2019-05-21 15.8 21.8 8.8 6.5-- 5.0----- 12.4------------
2019-05-20 14.1 18.4 9.2 8.3-- 7.3----- 1.7------------
2019-05-19 14.9 22.3 7.3 5.8-- 4.3----- 0.0------------
2019-05-18 15.5 21.4 7.7 4.8-- 1.0----- 0.0------------
2019-05-17 12.9 17.2 7.9 5.5-- 7.7----- 7.6------------
2019-05-16 10.1 13.8 5.9 5.5-- 7.3----- 0.2------------
2019-05-15 5.0 6.3 3.2 3.2-- 8.0----- 5.3------------
2019-05-14 5.5 9.1 1.5 -1.0-- 6.0----- 3.1------------
2019-05-13 8.1 11.0 5.2 4.4-- 6.0----- 0.0------------
2019-05-12 8.6 13.6 5.9 5.8-- 8.0----- 1.2------------
2019-05-11 10.9 16.6 4.0 1.6-- 5.0----- 3.8------------
2019-05-10 11.2 14.9 7.1 4.4-- 7.3----- 1.5------------
2019-05-09 10.9 13.5 8.8 7.9-- 8.0----- 3.3------------
2019-05-08 9.1 16.0 0.7 -1.5-- 4.3----- 2.2------------
2019-05-07 6.6 10.5 1.2 -2.0-- 7.0----- 1.0------------
2019-05-06 7.1 11.0 4.0 2.9-- 7.0----- 0.0------------
2019-05-05 5.1 8.6 1.6 1.4-- 8.0----- 0.0------------
2019-05-04 6.3 13.8 2.0 0.2-- 8.0----- 6.1------------
2019-05-03 9.9 14.4 6.5 5.3-- 7.7----- 1.1------------
2019-05-02 13.5 19.4 7.9 4.9-- 3.3----- 0.0------------
2019-05-01 11.9 16.6 5.9 2.1-- 5.0----- 0.0------------
2019-04-30 10.9 16.1 6.9 5.9-- 7.7----- 0.2------------
2019-04-29 9.3 11.1 7.4 6.3-- 8.0----- 20.2------------
2019-04-28 10.2 13.6 7.5 5.0-- 8.0----- 10.8------------
2019-04-27 12.5 20.5 8.8 7.2-- 7.3----- 0.2------------
2019-04-26 18.0 26.2 7.9 5.8-- 3.7----- 0.4------------
2019-04-25 18.8 24.6 13.3 10.2-- 2.7----- 0.0------------
2019-04-24 14.5 20.1 9.5 8.3-- 7.3----- 0.0------------
2019-04-23 10.0 16.7 3.5 0.0-- 5.7----- 0.6------------
2019-04-22 9.5 15.5 3.2 1.0-- 4.0----- 0.0------------
2019-04-21 10.5 17.8 2.3 0.0-- 1.0----- 0.0------------
2019-04-20 11.6 20.1 2.7 -0.9-- 3.7----- 0.0------------
2019-04-19 11.8 20.3 2.4 0.0-- 1.0----- 0.0------------
2019-04-18 10.9 19.6 1.6 -1.5-- 1.0----- 0.0------------
2019-04-17 8.6 16.2 0.1 -1.2-- 2.7----- 0.0------------
2019-04-16 5.9 13.9 -2.3 -4.9-- 1.0----- 0.0------------
2019-04-15 5.3 11.6 -0.4 -2.9-- 3.3----- 0.0------------
194.9 ms

 

Źródłem pochodzenia danych jest Instytut Meteorologii i Gospodarki Wodnej – Państwowy Instytut Badawczy. Dane Instytutu Meteorologii i Gospodarki Wodnej – Państwowego Instytutu Badawczego zostały przetworzone.

Dane źródłowe można odnaleźć na stronie https://dane.imgw.pl